Horse Creek, California
Current Conditions -  °F | °C
As of 3:53 AM on Sunday 25 Jan 2015 (Local Time) from KSIY Reporting Station
Moderate Fog Moderate Fog  
Wind Chill: 29°   Ceiling: 100
Heat Index: 29°   Visibility: 0.25mi
Dew Point: 27°   Wind: 0mph
Humidity: 92%   Direction: NA
Pressure: 30.36"   Gusts: NA
Location:  41.8705°N, 122.912°W
Report Text: KSIY 251153Z AUTO 00000KT 1/4SM FZFG VV001 M02/M03 A3036 RMK AO2 SLP299 I1001 I6001 T10171028 10033 21028 58003
Loading
Personal Weather Stations






























Interactive Weather Map New forecast layout! Learn more

10-Day Weather Forecast

Advertisements
Track Severe Weather on mobile